createdAt,value
2022-08-01T00:04:01.514Z,24.24
2022-08-01T00:09:02.942Z,24.15
2022-08-01T00:14:04.618Z,24.21
2022-08-01T00:19:05.963Z,24.21
2022-08-01T00:24:07.526Z,24.13
2022-08-01T00:30:10.280Z,24.10
2022-08-01T00:34:37.282Z,24.00
2022-08-01T00:39:38.665Z,23.89
2022-08-01T00:44:41.065Z,23.91
2022-08-01T00:49:42.455Z,23.83
2022-08-01T00:54:44.563Z,23.88
2022-08-01T00:59:45.948Z,23.88
2022-08-01T01:04:49.364Z,23.88
2022-08-01T01:10:01.544Z,23.85
2022-08-01T01:15:11.505Z,23.87
2022-08-01T01:20:14.676Z,23.91
2022-08-01T01:25:25.233Z,23.93
2022-08-01T01:30:30.430Z,23.93
2022-08-01T01:35:36.673Z,23.91
2022-08-01T01:40:39.107Z,23.82
2022-08-01T01:45:41.716Z,23.80
2022-08-01T01:50:44.261Z,23.75
2022-08-01T01:55:49.099Z,23.63
2022-08-01T02:00:54.356Z,23.58
2022-08-01T02:05:57.982Z,23.40
2022-08-01T02:11:19.179Z,23.17
2022-08-01T02:16:23.851Z,23.26
2022-08-01T02:21:31.875Z,23.34
2022-08-01T02:26:34.722Z,23.46
2022-08-01T02:31:40.639Z,23.42
2022-08-01T02:36:45.773Z,23.44
2022-08-01T02:41:50.889Z,23.46
2022-08-01T02:47:05.704Z,23.44
2022-08-01T02:52:10.868Z,23.41
2022-08-01T02:57:15.433Z,23.44
2022-08-01T03:02:21.693Z,23.41
2022-08-01T03:07:24.893Z,23.40
2022-08-01T03:12:38.015Z,23.39
2022-08-01T03:17:42.548Z,23.34
2022-08-01T03:22:45.853Z,23.26
2022-08-01T03:27:54.943Z,23.23
2022-08-01T03:32:57.446Z,23.29
2022-08-01T03:38:17.198Z,23.27
2022-08-01T03:43:36.404Z,23.23
2022-08-01T03:48:43.762Z,23.18
2022-08-01T03:53:47.708Z,23.19
2022-08-01T03:58:50.612Z,23.19
2022-08-01T04:03:52.438Z,23.16
2022-08-01T04:08:58.129Z,23.22
2022-08-01T04:13:59.536Z,23.22
2022-08-01T04:19:01.167Z,23.12
2022-08-01T04:24:11.457Z,23.09
2022-08-01T04:29:16.790Z,23.04
2022-08-01T04:34:22.425Z,23.08
2022-08-01T04:39:29.111Z,23.13
2022-08-01T04:44:33.208Z,23.13
2022-08-01T04:49:48.563Z,23.17
2022-08-01T04:54:50.739Z,23.06
2022-08-01T04:59:57.630Z,22.84
2022-08-01T05:05:00.073Z,22.63
2022-08-01T05:10:02.276Z,22.73
2022-08-01T05:15:10.606Z,22.85
2022-08-01T05:20:16.200Z,22.91
2022-08-01T05:25:19.206Z,22.68
2022-08-01T05:30:22.388Z,22.78
2022-08-01T05:35:23.847Z,22.78
2022-08-01T05:40:45.381Z,22.89
2022-08-01T05:45:46.998Z,22.99
2022-08-01T05:50:48.736Z,22.97
2022-08-01T05:55:50.085Z,23.02
2022-08-01T06:00:52.048Z,23.03
2022-08-01T06:05:54.057Z,22.85
2022-08-01T06:10:55.501Z,22.82
2022-08-01T06:15:56.956Z,23.01
2022-08-01T06:20:58.372Z,22.92
2022-08-01T06:25:59.834Z,23.09
2022-08-01T06:31:01.273Z,23.27
2022-08-01T06:36:02.749Z,23.18
2022-08-01T06:41:04.373Z,23.15
2022-08-01T06:46:05.766Z,23.18
2022-08-01T06:51:09.812Z,23.22
2022-08-01T06:56:11.277Z,23.28
2022-08-01T07:01:12.768Z,23.49
2022-08-01T07:06:15.901Z,23.77
2022-08-01T07:11:17.311Z,23.76
2022-08-01T07:16:18.881Z,23.98
2022-08-01T07:21:40.589Z,24.28
2022-08-01T07:26:53.452Z,24.81
2022-08-01T07:31:58.150Z,25.32
2022-08-01T07:36:59.547Z,25.12
2022-08-01T07:42:07.307Z,24.84
2022-08-01T07:47:09.777Z,24.95
2022-08-01T07:52:11.168Z,25.30
2022-08-01T07:57:12.568Z,25.50
2022-08-01T08:02:14.541Z,25.50
2022-08-01T08:07:16.357Z,25.45
2022-08-01T08:12:17.759Z,25.53
2022-08-01T08:17:19.904Z,25.86
2022-08-01T08:22:21.293Z,25.56
2022-08-01T08:27:22.682Z,25.80
2022-08-01T08:32:24.040Z,25.74
2022-08-01T08:37:25.398Z,25.56
2022-08-01T08:42:33.209Z,25.31
2022-08-01T08:47:35.953Z,25.43
2022-08-01T08:52:39.995Z,25.59
2022-08-01T08:57:45.226Z,25.67
2022-08-01T09:02:50.156Z,25.65
2022-08-01T09:07:51.562Z,25.66
2022-08-01T09:13:13.939Z,25.71
2022-08-01T09:18:28.779Z,25.75
2022-08-01T09:23:34.099Z,25.87
2022-08-01T09:28:36.297Z,26.03
2022-08-01T09:33:59.006Z,26.40
2022-08-01T09:39:13.618Z,27.22
2022-08-01T09:44:18.580Z,27.26
2022-08-01T09:49:50.590Z,27.49
2022-08-01T09:54:59.210Z,28.04
2022-08-01T10:00:02.334Z,28.44
2022-08-01T10:05:08.093Z,29.00
2022-08-01T10:10:15.458Z,29.43
2022-08-01T10:15:18.591Z,29.85
2022-08-01T10:20:30.115Z,28.95
2022-08-01T10:25:41.793Z,29.35
2022-08-01T10:30:45.493Z,29.11
2022-08-01T10:35:48.265Z,29.54
2022-08-01T10:40:51.118Z,30.81
2022-08-01T10:45:53.129Z,30.97
2022-08-01T10:50:58.649Z,31.14
2022-08-01T10:56:03.332Z,30.72
2022-08-01T11:01:25.924Z,30.49
2022-08-01T11:06:34.047Z,30.43
2022-08-01T11:12:13.641Z,29.75
2022-08-01T11:17:42.127Z,29.15
2022-08-01T11:22:59.516Z,29.05
2022-08-01T11:28:29.120Z,28.70
2022-08-01T11:33:40.495Z,28.81
2022-08-01T11:38:46.340Z,29.16
2022-08-01T11:44:09.096Z,30.33
2022-08-01T11:49:48.722Z,31.07
2022-08-01T11:55:05.507Z,31.10
2022-08-01T12:00:17.742Z,31.34
2022-08-01T12:05:24.515Z,31.64
2022-08-01T12:10:29.941Z,31.47
2022-08-01T12:15:38.573Z,31.50
2022-08-01T12:20:56.038Z,31.61
2022-08-01T12:25:58.680Z,31.43
2022-08-01T12:30:59.992Z,31.55
2022-08-01T12:36:01.610Z,31.63
2022-08-01T12:41:03.064Z,32.08
2022-08-01T12:46:04.644Z,31.81
2022-08-01T12:51:06.156Z,31.26
2022-08-01T12:56:07.563Z,30.84
2022-08-01T13:01:11.210Z,30.55
2022-08-01T13:06:15.539Z,30.63
2022-08-01T13:11:18.967Z,30.68
2022-08-01T13:16:30.243Z,30.93
2022-08-01T13:21:52.665Z,30.81
2022-08-01T13:27:00.704Z,30.65
2022-08-01T13:32:29.061Z,30.58
2022-08-01T13:37:32.382Z,30.47
2022-08-01T13:42:34.785Z,29.99
2022-08-01T13:47:36.156Z,30.08
2022-08-01T13:52:37.557Z,29.76
2022-08-01T13:57:39.238Z,29.54
2022-08-01T14:02:41.188Z,29.10
2022-08-01T14:07:43.359Z,28.97
2022-08-01T14:12:50.491Z,28.68
2022-08-01T14:17:52.469Z,28.61
2022-08-01T14:22:53.848Z,28.46
2022-08-01T14:27:55.681Z,28.38
2022-08-01T14:32:57.124Z,28.31
2022-08-01T14:37:58.548Z,28.43
2022-08-01T14:43:02.164Z,28.36
2022-08-01T14:48:03.853Z,28.47
2022-08-01T14:53:05.330Z,28.72
2022-08-01T14:58:06.672Z,28.83
2022-08-01T15:03:08.075Z,28.73
2022-08-01T15:08:09.472Z,28.70
2022-08-01T15:13:10.838Z,28.90
2022-08-01T15:18:12.523Z,28.96
2022-08-01T15:23:14.500Z,29.03
2022-08-01T15:28:15.934Z,28.80
2022-08-01T15:33:17.718Z,28.71
2022-08-01T15:38:20.156Z,28.65
2022-08-01T15:43:21.488Z,28.55
2022-08-01T15:48:22.920Z,28.57
2022-08-01T15:53:24.403Z,28.30
2022-08-01T15:58:25.956Z,28.37
2022-08-01T16:03:27.729Z,28.47
2022-08-01T16:08:29.195Z,28.50
2022-08-01T16:13:30.703Z,28.44
2022-08-01T16:18:32.061Z,28.41
2022-08-01T16:23:33.506Z,28.49
2022-08-01T16:28:35.419Z,28.21
2022-08-01T16:33:41.432Z,28.11
2022-08-01T16:38:54.820Z,28.10
2022-08-01T16:43:56.568Z,28.01
2022-08-01T16:48:58.043Z,27.86
2022-08-01T16:54:00.269Z,27.93
2022-08-01T16:59:01.650Z,28.01
2022-08-01T17:04:03.071Z,27.80
2022-08-01T17:09:05.211Z,27.81
2022-08-01T17:14:06.649Z,27.66
2022-08-01T17:19:08.284Z,27.49
2022-08-01T17:24:09.820Z,27.54
2022-08-01T17:29:11.557Z,27.51
2022-08-01T17:34:13.133Z,27.47
2022-08-01T17:39:14.645Z,27.40
2022-08-01T17:44:15.967Z,27.36
2022-08-01T17:49:33.344Z,27.32
2022-08-01T17:54:39.074Z,27.35
2022-08-01T17:59:40.450Z,27.29
2022-08-01T18:04:44.408Z,27.24
2022-08-01T18:09:46.353Z,27.07
2022-08-01T18:14:47.715Z,26.87
2022-08-01T18:19:50.759Z,26.79
2022-08-01T18:24:52.469Z,26.73
2022-08-01T18:29:53.827Z,26.64
2022-08-01T18:34:55.174Z,26.61
2022-08-01T18:39:57.039Z,26.52
2022-08-01T18:44:58.417Z,26.40
2022-08-01T18:50:00.095Z,26.31
2022-08-01T18:55:01.487Z,26.23
2022-08-01T19:00:04.516Z,26.21
2022-08-01T19:05:06.305Z,26.04
2022-08-01T19:10:07.901Z,26.03
2022-08-01T19:15:09.892Z,25.94
2022-08-01T19:20:11.506Z,25.90
2022-08-01T19:25:14.893Z,25.84
2022-08-01T19:30:18.078Z,25.82
2022-08-01T19:35:19.740Z,25.74
2022-08-01T19:40:26.164Z,25.69
2022-08-01T19:45:29.699Z,25.67
2022-08-01T19:50:32.609Z,25.54
2022-08-01T19:55:39.173Z,25.56
2022-08-01T20:00:42.745Z,25.53
2022-08-01T20:05:44.313Z,25.49
2022-08-01T20:10:46.716Z,25.45
2022-08-01T20:15:48.574Z,25.37
2022-08-01T20:20:52.307Z,25.21
2022-08-01T20:25:59.070Z,24.95
2022-08-01T20:31:05.701Z,24.96
2022-08-01T20:36:12.377Z,24.88
2022-08-01T20:41:28.204Z,24.82
2022-08-01T20:46:29.696Z,24.81
2022-08-01T20:51:38.102Z,24.65
2022-08-01T20:56:59.256Z,24.59
2022-08-01T21:02:24.947Z,24.42
2022-08-01T21:07:30.529Z,24.23
2022-08-01T21:12:44.754Z,24.14
2022-08-01T21:17:54.983Z,23.98
2022-08-01T21:23:14.434Z,24.00
2022-08-01T21:28:15.972Z,24.00
2022-08-01T21:33:17.429Z,23.91
2022-08-01T21:38:19.177Z,23.89
2022-08-01T21:43:21.828Z,23.86
2022-08-01T21:48:26.868Z,23.78
2022-08-01T21:53:53.889Z,23.79
2022-08-01T21:59:33.519Z,23.72
2022-08-01T22:04:53.515Z,23.52
2022-08-01T22:09:57.353Z,23.40
2022-08-01T22:15:03.074Z,23.39
2022-08-01T22:20:05.365Z,23.19
2022-08-01T22:25:07.253Z,23.22
2022-08-01T22:30:12.660Z,23.23
2022-08-01T22:35:16.352Z,23.22
2022-08-01T22:40:17.688Z,23.17
2022-08-01T22:45:39.819Z,23.13
2022-08-01T22:50:55.168Z,23.10
2022-08-01T22:55:59.377Z,23.00
2022-08-01T23:01:03.017Z,22.97
2022-08-01T23:06:09.978Z,22.82
2022-08-01T23:11:11.395Z,22.78
2022-08-01T23:16:17.429Z,22.76
2022-08-01T23:21:19.652Z,22.69
2022-08-01T23:26:23.424Z,22.70
2022-08-01T23:32:00.631Z,22.56
2022-08-01T23:36:48.285Z,22.58
2022-08-01T23:41:57.258Z,22.43
2022-08-01T23:47:00.959Z,22.46
2022-08-01T23:52:03.053Z,22.29
2022-08-01T23:57:04.632Z,22.34
